Time;durP1;ratioP1;P1;durP2;ratioP2;P2;SDS_P1;SDS_P2;PMS_P1;PMS_P2;Temp;Humidity;BMP_temperature;BMP_pressure;BME280_temperature;BME280_humidity;BME280_pressure;Samples;Min_cycle;Max_cycle;Signal;HPM_P1;HPM_P2
2021/06/11 04:01:17;;;;;;;10.07;9.37;;;15.70;99.90;;;;;;5556581;23;20547;-71
2021/06/11 04:03:44;;;;;;;11.00;10.10;;;15.80;99.90;;;;;;4935085;29;20813;-71
2021/06/11 04:06:13;;;;;;;9.57;8.87;;;15.80;99.90;;;;;;4934856;28;21005;-69
2021/06/11 04:08:39;;;;;;;9.40;8.80;;;15.80;99.90;;;;;;4935529;29;20566;-69
2021/06/11 04:11:07;;;;;;;10.17;9.37;;;15.90;99.90;;;;;;4934684;29;20859;-69
2021/06/11 04:13:48;;;;;;;9.70;8.83;;;16.00;99.90;;;;;;4935292;29;20465;-69
2021/06/11 04:16:19;;;;;;;10.17;9.40;;;16.10;99.90;;;;;;4934562;29;20572;-69
2021/06/11 04:18:46;;;;;;;9.00;8.40;;;16.10;99.90;;;;;;4935099;29;20516;-69
2021/06/11 04:21:21;;;;;;;8.90;8.30;;;16.10;99.90;;;;;;4934592;29;20560;-69
2021/06/11 04:23:48;;;;;;;10.00;9.20;;;16.20;99.90;;;;;;4934945;29;20465;-69
2021/06/11 04:26:16;;;;;;;10.57;9.50;;;16.30;99.90;;;;;;4937595;29;20481;-69
2021/06/11 04:28:44;;;;;;;9.53;8.93;;;16.40;99.90;;;;;;4939165;29;20469;-70
2021/06/11 04:31:10;;;;;;;10.27;9.57;;;16.40;99.90;;;;;;4937870;29;20993;-69
2021/06/11 04:33:38;;;;;;;10.17;9.50;;;16.50;99.90;;;;;;4938645;29;20469;-71
2021/06/11 04:36:05;;;;;;;10.40;9.70;;;16.50;99.90;;;;;;4938592;29;20871;-69
2021/06/11 04:38:42;;;;;;;10.73;9.83;;;16.60;99.90;;;;;;4939125;29;20988;-69
2021/06/11 04:41:10;;;;;;;10.27;9.60;;;16.70;99.90;;;;;;4938206;29;20489;-71
2021/06/11 04:43:36;;;;;;;10.20;9.40;;;16.80;99.90;;;;;;4938404;29;20927;-69
2021/06/11 04:46:02;;;;;;;10.00;9.30;;;16.80;99.90;;;;;;4937813;29;20985;-69
2021/06/11 04:48:29;;;;;;;11.27;10.47;;;16.90;99.90;;;;;;4938578;29;20524;-70
2021/06/11 04:50:56;;;;;;;10.30;9.60;;;17.00;99.90;;;;;;4938470;29;20501;-70
2021/06/11 04:53:22;;;;;;;10.00;9.03;;;17.20;99.90;;;;;;4938183;29;20504;-70
2021/06/11 04:55:48;;;;;;;11.23;10.33;;;17.20;99.90;;;;;;4937955;29;20473;-70
2021/06/11 04:58:17;;;;;;;9.73;9.03;;;17.30;99.90;;;;;;4937957;29;20493;-69
2021/06/11 05:00:44;;;;;;;11.20;10.30;;;17.40;99.90;;;;;;4936979;29;21005;-69
2021/06/11 05:03:10;;;;;;;9.90;9.30;;;17.60;99.90;;;;;;4937823;29;20472;-70
2021/06/11 05:05:36;;;;;;;11.70;10.80;;;17.70;99.90;;;;;;4937842;29;20610;-69
2021/06/11 05:08:04;;;;;;;10.50;9.80;;;17.80;99.90;;;;;;4938288;29;20569;-70
2021/06/11 05:10:30;;;;;;;10.67;9.83;;;18.10;99.90;;;;;;4937539;29;20504;-70
2021/06/11 05:12:56;;;;;;;11.17;10.37;;;18.30;99.90;;;;;;4937756;29;20616;-70
2021/06/11 05:15:23;;;;;;;11.07;10.17;;;18.70;99.90;;;;;;4937285;29;20957;-69
2021/06/11 05:17:49;;;;;;;10.53;9.80;;;19.00;99.90;;;;;;4938137;29;20544;-70
2021/06/11 05:20:16;;;;;;;12.00;11.10;;;19.30;99.90;;;;;;4938133;29;20472;-70
2021/06/11 05:22:42;;;;;;;10.33;9.67;;;19.60;99.90;;;;;;4937720;29;20529;-70
2021/06/11 05:25:11;;;;;;;12.03;11.13;;;20.10;99.90;;;;;;4938164;29;20473;-70
2021/06/11 05:27:37;;;;;;;11.80;10.80;;;20.80;99.90;;;;;;4937373;29;20976;-70
2021/06/11 05:30:04;;;;;;;12.50;11.50;;;21.20;99.90;;;;;;4937156;29;20474;-70
2021/06/11 05:32:30;;;;;;;12.30;11.47;;;21.60;99.90;;;;;;4937638;29;20478;-70
2021/06/11 05:34:56;;;;;;;11.50;10.60;;;21.70;99.90;;;;;;4937450;29;21015;-68
2021/06/11 05:37:22;;;;;;;12.63;11.77;;;22.00;99.90;;;;;;4936645;28;20508;-69
2021/06/11 05:39:49;;;;;;;13.73;12.70;;;22.40;99.90;;;;;;4937392;29;20470;-68
2021/06/11 05:42:16;;;;;;;13.40;12.27;;;22.60;99.90;;;;;;4936511;29;20512;-69
2021/06/11 05:44:42;;;;;;;13.17;12.33;;;22.60;99.90;;;;;;4937133;29;20497;-66
2021/06/11 05:47:08;;;;;;;12.70;11.83;;;22.70;99.90;;;;;;4936981;29;20950;-66
2021/06/11 05:49:35;;;;;;;12.60;11.80;;;22.60;99.90;;;;;;4937388;29;20469;-67
2021/06/11 05:52:01;;;;;;;13.70;12.70;;;22.60;99.90;;;;;;4937246;29;20494;-67
2021/06/11 05:54:27;;;;;;;14.70;13.63;;;23.00;99.90;;;;;;4937287;29;20466;-68
2021/06/11 05:56:56;;;;;;;14.67;13.30;;;23.30;99.90;;;;;;4936642;29;20884;-68
2021/06/11 05:59:23;;;;;;;14.40;13.40;;;23.80;99.90;;;;;;4936698;29;20492;-68
2021/06/11 06:01:50;;;;;;;13.40;12.50;;;24.40;99.90;;;;;;4936787;29;20542;-68
2021/06/11 06:04:16;;;;;;;13.20;12.30;;;24.70;99.90;;;;;;4937027;29;20476;-68
2021/06/11 06:06:43;;;;;;;13.47;12.47;;;25.20;99.90;;;;;;4936962;29;20525;-68
2021/06/11 06:09:09;;;;;;;13.30;12.20;;;25.60;99.90;;;;;;4937000;29;20492;-68
2021/06/11 06:11:35;;;;;;;13.20;12.10;;;25.90;99.90;;;;;;4936357;29;20492;-67
2021/06/11 06:14:01;;;;;;;12.13;11.33;;;26.30;99.90;;;;;;4936644;28;20481;-67
2021/06/11 06:16:30;;;;;;;10.87;10.20;;;26.70;99.90;;;;;;4936516;29;21012;-67
2021/06/11 06:18:57;;;;;;;11.63;10.93;;;27.10;99.90;;;;;;4937005;29;20479;-68
2021/06/11 06:21:24;;;;;;;11.17;10.40;;;27.30;99.90;;;;;;4936634;29;20493;-67
2021/06/11 06:23:50;;;;;;;11.80;11.10;;;27.50;99.90;;;;;;4936631;29;20490;-68
2021/06/11 06:26:16;;;;;;;11.67;10.93;;;27.60;99.90;;;;;;4935940;29;20485;-68
2021/06/11 06:28:42;;;;;;;11.90;11.10;;;27.80;99.50;;;;;;4936809;29;20944;-68
2021/06/11 06:31:09;;;;;;;11.00;10.27;;;27.80;98.50;;;;;;4936015;29;20493;-68
2021/06/11 06:33:36;;;;;;;11.67;11.03;;;27.70;99.10;;;;;;4936501;29;20953;-67
2021/06/11 06:36:03;;;;;;;12.40;11.57;;;27.90;99.00;;;;;;4936413;28;20488;-67
2021/06/11 06:38:30;;;;;;;11.83;11.13;;;28.00;98.30;;;;;;4936695;29;20493;-67
2021/06/11 06:40:59;;;;;;;13.17;12.37;;;28.10;98.00;;;;;;4935526;29;20496;-67
2021/06/11 06:43:26;;;;;;;12.10;11.40;;;28.30;96.90;;;;;;4936282;29;20475;-67
2021/06/11 06:45:52;;;;;;;12.67;11.87;;;28.60;96.40;;;;;;4935650;28;20481;-68
2021/06/11 06:48:18;;;;;;;11.03;10.33;;;28.90;95.60;;;;;;4935435;29;20467;-67
2021/06/11 06:50:46;;;;;;;11.97;11.27;;;29.30;96.00;;;;;;4936113;29;20508;-67
2021/06/11 06:53:12;;;;;;;10.43;9.83;;;29.60;95.30;;;;;;4935800;29;20631;-67
2021/06/11 06:55:39;;;;;;;10.53;9.80;;;29.50;94.20;;;;;;4935584;29;20492;-68
2021/06/11 06:58:05;;;;;;;11.60;10.80;;;29.60;93.50;;;;;;4935728;28;20505;-68
2021/06/11 07:00:32;;;;;;;11.90;11.20;;;29.60;93.30;;;;;;4935384;29;20489;-67
2021/06/11 07:02:59;;;;;;;11.40;10.80;;;29.50;93.90;;;;;;4935846;29;20465;-67
2021/06/11 07:05:26;;;;;;;11.80;10.83;;;29.60;93.80;;;;;;4936203;29;20905;-68
2021/06/11 07:07:53;;;;;;;11.73;10.93;;;29.80;92.80;;;;;;4935460;29;20935;-68
2021/06/11 07:10:19;;;;;;;10.57;9.90;;;30.00;92.30;;;;;;4936053;29;20477;-67
2021/06/11 07:12:46;;;;;;;10.70;10.00;;;30.20;92.20;;;;;;4935268;29;20477;-67
2021/06/11 07:15:12;;;;;;;11.03;10.33;;;30.40;91.60;;;;;;4935326;29;20465;-67
2021/06/11 07:17:39;;;;;;;10.40;9.90;;;30.30;91.70;;;;;;4935573;29;20592;-67
2021/06/11 07:20:07;;;;;;;11.53;10.47;;;30.30;92.00;;;;;;4935421;28;20492;-67
2021/06/11 07:22:34;;;;;;;9.47;9.07;;;30.60;91.60;;;;;;4935206;29;20536;-67
2021/06/11 07:25:03;;;;;;;9.70;9.20;;;30.80;90.80;;;;;;4935698;29;20582;-67
2021/06/11 07:27:31;;;;;;;9.60;9.00;;;30.60;90.60;;;;;;4935133;29;20529;-67
2021/06/11 07:29:58;;;;;;;8.83;8.40;;;30.80;90.50;;;;;;4935016;28;20477;-68
2021/06/11 07:32:24;;;;;;;8.73;8.33;;;31.00;89.00;;;;;;4935247;29;20490;-67
2021/06/11 07:34:51;;;;;;;8.10;7.60;;;30.90;88.10;;;;;;4935264;29;20492;-68
2021/06/11 07:37:17;;;;;;;8.30;8.00;;;31.10;87.60;;;;;;4935455;29;20552;-67
2021/06/11 07:39:43;;;;;;;6.97;6.57;;;30.80;87.00;;;;;;4935450;29;20934;-67
2021/06/11 07:42:12;;;;;;;5.33;5.20;;;30.70;86.80;;;;;;4934861;29;20794;-67
2021/06/11 07:44:39;;;;;;;5.90;5.70;;;30.80;85.60;;;;;;4934930;29;20492;-67
2021/06/11 07:47:05;;;;;;;6.00;5.80;;;30.90;84.90;;;;;;4935151;29;20466;-68
2021/06/11 07:49:32;;;;;;;6.27;5.97;;;31.00;82.20;;;;;;4935141;29;20493;-68
2021/06/11 07:51:58;;;;;;;5.00;4.80;;;30.90;81.90;;;;;;4934890;29;20518;-68
2021/06/11 07:54:24;;;;;;;5.17;4.97;;;30.70;83.20;;;;;;4934808;29;20476;-68
2021/06/11 07:56:51;;;;;;;4.33;4.23;;;30.80;81.90;;;;;;4934562;29;20494;-67
2021/06/11 07:59:20;;;;;;;4.90;4.80;;;30.80;82.10;;;;;;4934388;29;20841;-69
2021/06/11 08:01:46;;;;;;;4.87;4.83;;;31.10;81.80;;;;;;4934834;29;20583;-70
2021/06/11 08:04:12;;;;;;;5.07;4.87;;;30.70;80.40;;;;;;4934891;29;20524;-69
2021/06/11 08:06:39;;;;;;;4.70;4.50;;;30.30;83.20;;;;;;4935014;29;20465;-67
2021/06/11 08:09:05;;;;;;;4.67;4.57;;;30.00;83.90;;;;;;4934953;29;20484;-68
2021/06/11 08:11:32;;;;;;;4.60;4.47;;;29.90;84.00;;;;;;4934386;29;20493;-66
2021/06/11 08:13:58;;;;;;;4.13;4.03;;;29.70;86.20;;;;;;4934680;29;20945;-66
2021/06/11 08:16:25;;;;;;;5.33;5.23;;;29.50;84.30;;;;;;4934013;29;20992;-68
2021/06/11 08:18:52;;;;;;;4.17;4.00;;;29.10;85.40;;;;;;4934904;29;20472;-67
2021/06/11 08:21:18;;;;;;;3.77;3.73;;;28.80;89.10;;;;;;4934365;28;20554;-67
2021/06/11 08:23:45;;;;;;;3.60;3.50;;;28.70;84.50;;;;;;4934536;29;20780;-69
2021/06/11 08:26:11;;;;;;;4.47;4.17;;;28.60;85.70;;;;;;4934340;29;20473;-69
2021/06/11 08:28:37;;;;;;;4.17;3.97;;;28.50;84.50;;;;;;4934988;29;20470;-69
2021/06/11 08:31:04;;;;;;;4.20;3.90;;;28.30;85.40;;;;;;4933770;29;20490;-70
2021/06/11 08:33:31;;;;;;;3.37;3.23;;;28.30;85.10;;;;;;4934899;29;20522;-67
2021/06/11 08:35:58;;;;;;;3.60;3.60;;;28.40;84.10;;;;;;4934300;28;20490;-70
2021/06/11 08:38:24;;;;;;;2.90;2.80;;;28.60;84.40;;;;;;4934811;29;20878;-69
2021/06/11 08:40:51;;;;;;;2.97;2.97;;;28.40;81.60;;;;;;4934068;29;20486;-69
2021/06/11 08:43:18;;;;;;;2.90;2.90;;;28.20;82.90;;;;;;4934574;29;20830;-70
2021/06/11 08:45:45;;;;;;;3.00;2.90;;;28.00;83.40;;;;;;4933852;29;20528;-69
2021/06/11 08:48:12;;;;;;;3.40;3.30;;;28.00;83.30;;;;;;4935002;29;20469;-69
2021/06/11 08:50:43;;;;;;;5.60;3.37;;;27.70;83.00;;;;;;4934120;28;20522;-69
2021/06/11 08:53:09;;;;;;;3.07;3.03;;;27.40;82.60;;;;;;4934489;29;20468;-69
2021/06/11 08:55:37;;;;;;;3.30;3.20;;;27.30;83.00;;;;;;4933830;29;20476;-69
2021/06/11 08:58:03;;;;;;;3.57;3.47;;;27.20;84.00;;;;;;4934176;29;20551;-69
2021/06/11 09:00:32;;;;;;;3.63;3.43;;;26.90;85.10;;;;;;4933722;29;20829;-69
2021/06/11 09:03:16;;;;;;;3.20;3.10;;;26.80;86.90;;;;;;4934332;29;20476;-69
2021/06/11 09:05:45;;;;;;;3.40;3.20;;;26.70;87.70;;;;;;4933994;29;20481;-67
2021/06/11 09:08:17;;;;;;;3.40;3.30;;;26.70;88.20;;;;;;4934483;29;20968;-68
2021/06/11 09:10:44;;;;;;;3.37;3.20;;;27.10;87.50;;;;;;4935409;29;20487;-68
2021/06/11 09:13:11;;;;;;;3.90;3.47;;;27.30;85.00;;;;;;4937876;29;20849;-67
2021/06/11 09:15:37;;;;;;;2.50;2.50;;;27.70;85.70;;;;;;4937279;29;20552;-67
2021/06/11 09:18:19;;;;;;;3.00;2.93;;;27.90;85.90;;;;;;4938058;29;20491;-67
2021/06/11 09:20:46;;;;;;;4.83;3.30;;;28.10;82.50;;;;;;4937179;28;20497;-67
2021/06/11 09:23:13;;;;;;;3.40;3.30;;;28.10;82.90;;;;;;4937236;29;20467;-67
2021/06/11 09:25:41;;;;;;;3.10;3.07;;;27.90;83.40;;;;;;4937471;29;20472;-67
2021/06/11 09:28:09;;;;;;;3.30;3.30;;;27.80;83.30;;;;;;4937994;29;20465;-67
2021/06/11 09:30:51;;;;;;;3.97;3.73;;;27.80;82.80;;;;;;4937202;29;20496;-67
2021/06/11 09:33:20;;;;;;;3.13;3.03;;;27.60;83.70;;;;;;4937946;28;20481;-71
2021/06/11 09:35:49;;;;;;;3.03;2.97;;;27.60;84.70;;;;;;4937786;29;20469;-71
2021/06/11 09:38:19;;;;;;;4.10;4.00;;;27.60;85.70;;;;;;4937918;29;20509;-71
2021/06/11 09:40:48;;;;;;;3.70;3.50;;;27.50;84.70;;;;;;4937374;29;20582;-71
2021/06/11 09:43:15;;;;;;;4.10;3.70;;;27.50;84.80;;;;;;4937472;29;20582;-71
2021/06/11 09:45:42;;;;;;;4.70;4.30;;;27.50;84.00;;;;;;4937055;28;20479;-71
2021/06/11 09:48:19;;;;;;;4.57;4.17;;;27.60;84.00;;;;;;4937673;29;20472;-71
2021/06/11 09:50:51;;;;;;;4.47;4.20;;;27.60;86.00;;;;;;4937519;29;20969;-71
2021/06/11 09:53:23;;;;;;;4.37;4.13;;;27.50;84.80;;;;;;4937942;29;20564;-71
2021/06/11 09:55:53;;;;;;;4.30;4.10;;;27.40;85.00;;;;;;4937091;29;20631;-72
2021/06/11 09:58:21;;;;;;;4.57;4.37;;;27.30;83.50;;;;;;4937688;28;20600;-71
2021/06/11 10:00:52;;;;;;;5.60;5.30;;;27.10;83.80;;;;;;4936754;29;20915;-71
2021/06/11 10:03:24;;;;;;;5.70;5.40;;;27.10;84.30;;;;;;4937525;29;20596;-72
2021/06/11 10:06:12;;;;;;;5.47;5.07;;;27.20;83.00;;;;;;4907708;29;20470;-71
2021/06/11 10:08:39;;;;;;;5.30;5.00;;;27.00;84.60;;;;;;4937527;29;20472;-71
2021/06/11 10:11:08;;;;;;;5.63;5.40;;;26.80;84.60;;;;;;4936163;28;20493;-71
2021/06/11 10:13:35;;;;;;;5.40;5.10;;;26.70;85.30;;;;;;4937220;29;20488;-71
2021/06/11 10:16:04;;;;;;;4.43;4.30;;;26.60;84.60;;;;;;4936722;29;20472;-71
2021/06/11 10:18:30;;;;;;;4.30;4.00;;;26.70;86.40;;;;;;4937117;29;20974;-71
2021/06/11 10:20:58;;;;;;;5.47;5.27;;;26.80;87.20;;;;;;4936833;28;20497;-71
2021/06/11 10:23:27;;;;;;;5.50;5.17;;;26.70;85.00;;;;;;4936684;29;20564;-72
2021/06/11 10:25:55;;;;;;;4.50;4.30;;;26.80;85.20;;;;;;4936254;29;20484;-71
2021/06/11 10:28:24;;;;;;;4.73;4.60;;;26.90;85.50;;;;;;4937069;29;20510;-71
2021/06/11 10:30:55;;;;;;;4.43;4.33;;;27.00;85.80;;;;;;4936425;29;20481;-70
2021/06/11 10:33:50;;;;;;;4.20;4.10;;;26.90;86.00;;;;;;4936992;29;20485;-71
2021/06/11 10:36:33;;;;;;;4.87;4.37;;;27.00;86.80;;;;;;4936549;29;20466;-71
2021/06/11 10:39:22;;;;;;;5.50;5.20;;;27.00;87.10;;;;;;4937060;29;20551;-71
2021/06/11 10:41:59;;;;;;;8.23;4.83;;;26.90;86.70;;;;;;4936065;29;20981;-72
2021/06/11 10:44:34;;;;;;;4.87;4.67;;;26.80;87.30;;;;;;4935976;29;20744;-70
2021/06/11 10:47:34;;;;;;;4.67;4.47;;;26.70;87.50;;;;;;4936864;29;20462;-70
2021/06/11 10:50:13;;;;;;;4.50;4.30;;;26.70;90.00;;;;;;4896459;29;20550;-70
2021/06/11 10:52:42;;;;;;;4.50;4.37;;;26.70;87.90;;;;;;4896043;29;20471;-70
2021/06/11 10:55:47;;;;;;;4.73;4.43;;;26.90;88.40;;;;;;4918160;29;20477;-70
2021/06/11 10:58:24;;;;;;;4.80;4.60;;;27.00;87.20;;;;;;4936545;29;20485;-71
2021/06/11 11:00:51;;;;;;;4.70;4.40;;;27.30;87.60;;;;;;4935461;29;21041;-70
2021/06/11 11:03:26;;;;;;;5.20;4.80;;;27.30;85.80;;;;;;4935616;29;20470;-70
2021/06/11 11:05:52;;;;;;;4.73;4.53;;;27.30;86.30;;;;;;4936124;29;20479;-69
2021/06/11 11:08:19;;;;;;;5.03;4.83;;;27.30;85.30;;;;;;4936470;29;20458;-70
2021/06/11 11:10:47;;;;;;;4.33;4.13;;;27.10;86.70;;;;;;4935478;29;20520;-70
2021/06/11 11:13:15;;;;;;;7.50;4.47;;;27.40;88.70;;;;;;4935947;29;20470;-70
2021/06/11 11:15:44;;;;;;;4.33;4.23;;;27.40;85.90;;;;;;4935175;29;20474;-70
2021/06/11 11:18:13;;;;;;;4.10;4.00;;;27.60;87.40;;;;;;4935884;29;20499;-70
2021/06/11 11:20:41;;;;;;;3.83;3.73;;;27.80;85.10;;;;;;4936058;29;20490;-70
2021/06/11 11:23:09;;;;;;;4.43;4.33;;;28.10;85.40;;;;;;4935718;29;20479;-70
2021/06/11 11:25:36;;;;;;;4.23;4.03;;;28.20;84.00;;;;;;4935249;29;20476;-70
2021/06/11 11:28:06;;;;;;;4.60;4.30;;;28.00;83.40;;;;;;4936006;29;21014;-70
2021/06/11 11:30:33;;;;;;;4.27;4.17;;;28.10;84.50;;;;;;4935482;29;20547;-70
2021/06/11 11:33:02;;;;;;;5.10;4.90;;;28.10;84.00;;;;;;4935658;29;20476;-70
2021/06/11 11:35:31;;;;;;;3.87;3.70;;;28.10;84.60;;;;;;4934909;29;20527;-70
2021/06/11 11:37:59;;;;;;;4.83;4.43;;;27.90;84.50;;;;;;4935524;29;20508;-71
2021/06/11 11:40:27;;;;;;;4.70;4.40;;;27.60;84.00;;;;;;4934932;29;20569;-70
2021/06/11 11:42:56;;;;;;;4.07;3.87;;;27.50;85.10;;;;;;4936034;29;20474;-71
2021/06/11 11:45:26;;;;;;;4.77;4.53;;;27.40;86.10;;;;;;4935752;29;20471;-71
2021/06/11 11:47:52;;;;;;;4.30;4.20;;;27.40;87.10;;;;;;4937433;29;20484;-71
2021/06/11 11:50:20;;;;;;;4.30;4.20;;;27.50;86.50;;;;;;4935249;29;20472;-70
2021/06/11 11:52:46;;;;;;;4.20;4.00;;;27.50;87.20;;;;;;4935410;28;20533;-71
2021/06/11 11:55:14;;;;;;;4.30;4.20;;;27.60;87.10;;;;;;4934965;29;20823;-71
2021/06/11 11:57:42;;;;;;;4.37;4.27;;;27.30;86.90;;;;;;4934465;29;20548;-66
2021/06/11 12:00:09;;;;;;;4.30;4.20;;;27.10;88.00;;;;;;4934353;29;20470;-67
2021/06/11 12:02:35;;;;;;;4.70;4.50;;;27.30;88.20;;;;;;4934622;29;20532;-67
2021/06/11 12:05:02;;;;;;;4.30;4.20;;;27.50;88.60;;;;;;4935271;29;20634;-67
2021/06/11 12:07:29;;;;;;;4.73;4.53;;;27.50;85.60;;;;;;4935470;29;20464;-67
2021/06/11 12:09:56;;;;;;;4.80;4.70;;;27.50;86.60;;;;;;4934640;29;20830;-69
2021/06/11 12:12:23;;;;;;;4.60;4.33;;;27.60;87.00;;;;;;4934255;29;20991;-68
2021/06/11 12:14:49;;;;;;;4.40;4.20;;;27.50;86.70;;;;;;4934524;29;20953;-68
2021/06/11 12:17:15;;;;;;;4.20;4.10;;;27.30;86.60;;;;;;4934775;29;20482;-68
2021/06/11 12:19:41;;;;;;;3.87;3.70;;;27.30;86.40;;;;;;4934926;29;20470;-68
2021/06/11 12:22:07;;;;;;;4.30;4.10;;;27.20;86.90;;;;;;4934780;29;20494;-69
2021/06/11 12:24:35;;;;;;;4.43;4.03;;;27.50;88.40;;;;;;4934701;29;20467;-68
2021/06/11 12:27:02;;;;;;;3.40;3.30;;;27.50;85.50;;;;;;4935298;29;20471;-67
2021/06/11 12:29:28;;;;;;;3.07;3.07;;;27.50;85.80;;;;;;4935539;29;20745;-66
2021/06/11 12:31:54;;;;;;;3.70;3.60;;;27.70;86.80;;;;;;4934674;29;20487;-68
2021/06/11 12:34:21;;;;;;;4.43;4.33;;;27.80;85.10;;;;;;4934687;29;20478;-67
2021/06/11 12:36:47;;;;;;;3.33;3.23;;;28.00;85.60;;;;;;4934780;29;20474;-68
2021/06/11 12:39:14;;;;;;;4.33;3.60;;;28.30;87.30;;;;;;4934639;29;20497;-68
2021/06/11 12:41:42;;;;;;;3.33;3.30;;;28.30;87.10;;;;;;4934671;29;20488;-67
2021/06/11 12:44:17;;;;;;;4.10;3.80;;;28.20;84.40;;;;;;4934269;29;20471;-69
2021/06/11 12:46:43;;;;;;;3.80;3.70;;;28.10;84.90;;;;;;4935397;29;20950;-67
2021/06/11 12:49:10;;;;;;;3.20;3.20;;;28.20;85.50;;;;;;4938393;29;20461;-67
2021/06/11 12:51:36;;;;;;;3.57;3.47;;;28.10;83.60;;;;;;4938433;28;20500;-67
2021/06/11 12:54:03;;;;;;;3.53;3.43;;;28.00;84.20;;;;;;4938397;29;20465;-67
2021/06/11 12:56:30;;;;;;;4.20;3.90;;;27.70;85.30;;;;;;4937887;29;20832;-68
2021/06/11 12:58:57;;;;;;;3.50;3.40;;;27.70;85.60;;;;;;4938489;29;20615;-67
2021/06/11 13:01:24;;;;;;;3.60;3.50;;;27.60;86.00;;;;;;4937418;29;20501;-68
2021/06/11 13:03:50;;;;;;;3.83;3.73;;;27.70;86.40;;;;;;4937838;29;20492;-67
2021/06/11 13:06:16;;;;;;;3.93;3.50;;;27.90;85.30;;;;;;4937786;29;20465;-67
2021/06/11 13:08:43;;;;;;;3.60;3.40;;;27.90;84.00;;;;;;4938117;29;20946;-67
2021/06/11 13:11:09;;;;;;;3.40;3.30;;;28.00;84.60;;;;;;4936992;29;20497;-67
2021/06/11 13:13:35;;;;;;;4.40;4.00;;;28.10;84.50;;;;;;4937789;29;20521;-67
2021/06/11 13:16:03;;;;;;;3.27;3.17;;;28.20;83.70;;;;;;4937044;29;20525;-68
2021/06/11 13:18:29;;;;;;;3.20;3.10;;;28.30;83.80;;;;;;4937917;29;20550;-69
2021/06/11 13:20:55;;;;;;;3.50;3.40;;;28.40;83.20;;;;;;4937620;29;20486;-69
2021/06/11 13:23:22;;;;;;;2.83;2.83;;;28.40;82.60;;;;;;4938260;29;20804;-69
2021/06/11 13:25:48;;;;;;;3.23;3.03;;;28.50;82.10;;;;;;4937647;29;20467;-68
2021/06/11 13:28:14;;;;;;;3.40;3.40;;;28.70;82.10;;;;;;4937761;29;20469;-68
2021/06/11 13:30:41;;;;;;;3.43;3.33;;;28.90;81.60;;;;;;4937117;28;20997;-69
2021/06/11 13:33:09;;;;;;;4.60;2.97;;;29.00;80.50;;;;;;4937575;29;20471;-68
2021/06/11 13:35:36;;;;;;;3.07;3.07;;;28.70;79.90;;;;;;4937344;29;20507;-68
2021/06/11 13:38:02;;;;;;;3.27;3.10;;;28.50;79.90;;;;;;4937630;29;20496;-68
2021/06/11 13:40:29;;;;;;;3.20;3.03;;;28.40;81.20;;;;;;4937231;29;20494;-68
2021/06/11 13:42:56;;;;;;;2.60;2.60;;;28.20;81.90;;;;;;4937463;29;20507;-68
2021/06/11 13:45:22;;;;;;;3.33;3.13;;;28.20;82.80;;;;;;4936935;29;20481;-69
2021/06/11 13:47:48;;;;;;;3.10;2.90;;;28.30;81.70;;;;;;4937266;29;20469;-68
2021/06/11 13:50:17;;;;;;;2.67;2.43;;;28.30;81.60;;;;;;4937542;29;20467;-67
2021/06/11 13:52:44;;;;;;;3.03;2.93;;;28.40;82.40;;;;;;4937047;29;20478;-67
2021/06/11 13:55:12;;;;;;;2.87;2.87;;;28.50;82.40;;;;;;4937466;29;20467;-67
2021/06/11 13:57:39;;;;;;;3.03;3.03;;;28.50;80.90;;;;;;4936564;29;20880;-67
2021/06/11 14:00:08;;;;;;;3.00;2.97;;;28.70;82.20;;;;;;4936603;29;20467;-68
2021/06/11 14:02:34;;;;;;;3.10;3.00;;;28.80;81.10;;;;;;4936685;29;20516;-68
2021/06/11 14:05:01;;;;;;;2.47;2.47;;;28.70;80.40;;;;;;4937423;29;20777;-68
2021/06/11 14:07:28;;;;;;;2.40;2.40;;;28.60;81.00;;;;;;4937312;29;20468;-67
2021/06/11 14:09:54;;;;;;;2.97;2.97;;;28.70;80.50;;;;;;4937349;29;20852;-67
2021/06/11 14:12:21;;;;;;;2.73;2.73;;;28.60;80.50;;;;;;4936223;29;20498;-67
2021/06/11 14:14:47;;;;;;;3.07;2.77;;;28.50;80.80;;;;;;4936354;29;20476;-67
2021/06/11 14:17:14;;;;;;;3.37;3.17;;;28.40;80.60;;;;;;4936544;29;20525;-67
2021/06/11 14:19:40;;;;;;;2.70;2.60;;;28.20;80.50;;;;;;4937116;29;20466;-67
2021/06/11 14:22:06;;;;;;;2.50;2.50;;;28.20;80.80;;;;;;4936625;28;20493;-71
2021/06/11 14:24:34;;;;;;;2.80;2.80;;;28.10;80.70;;;;;;4937029;29;20954;-72
2021/06/11 14:27:00;;;;;;;2.80;2.60;;;28.00;80.80;;;;;;4936350;29;20470;-72
2021/06/11 14:29:26;;;;;;;3.50;3.30;;;28.00;81.50;;;;;;4936294;29;20472;-72
2021/06/11 14:31:53;;;;;;;3.13;2.90;;;27.90;81.30;;;;;;4936691;29;20494;-72
2021/06/11 14:34:19;;;;;;;2.97;2.87;;;28.10;81.00;;;;;;4936155;29;20481;-72
2021/06/11 14:36:45;;;;;;;3.27;3.07;;;28.10;80.90;;;;;;4936436;29;20514;-73
2021/06/11 14:39:11;;;;;;;3.23;2.60;;;28.10;80.70;;;;;;4936364;29;20498;-72
2021/06/11 14:41:39;;;;;;;3.03;2.93;;;28.20;81.10;;;;;;4935931;29;20484;-73
2021/06/11 14:44:05;;;;;;;2.70;2.70;;;28.30;81.70;;;;;;4935997;29;20465;-72
2021/06/11 14:46:33;;;;;;;2.53;2.53;;;28.20;81.10;;;;;;4936149;28;20481;-68
2021/06/11 14:49:00;;;;;;;2.87;2.87;;;28.10;82.70;;;;;;4937019;29;20461;-69
2021/06/11 14:51:27;;;;;;;3.03;2.50;;;27.90;82.70;;;;;;4936460;29;20489;-68
2021/06/11 14:53:53;;;;;;;3.13;2.93;;;28.00;82.40;;;;;;4936477;29;20560;-69
2021/06/11 14:56:23;;;;;;;2.97;2.87;;;28.20;82.90;;;;;;4935645;28;20835;-69
2021/06/11 14:58:51;;;;;;;2.60;2.50;;;28.20;81.60;;;;;;4936267;29;20485;-69
2021/06/11 15:01:19;;;;;;;2.70;2.70;;;28.20;81.80;;;;;;4935539;29;20494;-68
2021/06/11 15:03:46;;;;;;;5.23;4.93;;;28.30;82.30;;;;;;4936354;29;20485;-68
2021/06/11 15:06:12;;;;;;;2.30;2.20;;;28.10;81.70;;;;;;4936457;29;20955;-69
2021/06/11 15:08:39;;;;;;;2.43;2.33;;;28.00;80.70;;;;;;4936258;28;20827;-68
2021/06/11 15:11:06;;;;;;;2.57;2.57;;;28.00;80.90;;;;;;4934569;29;20502;-69
2021/06/11 15:13:32;;;;;;;3.30;3.10;;;28.00;80.50;;;;;;4935818;29;20466;-68
2021/06/11 15:16:00;;;;;;;2.23;2.17;;;27.90;81.70;;;;;;4935101;29;20481;-68
2021/06/11 15:18:27;;;;;;;2.47;2.47;;;27.80;80.60;;;;;;4935756;29;20501;-68
2021/06/11 15:20:55;;;;;;;2.60;2.50;;;27.70;82.10;;;;;;4935200;29;20588;-68
2021/06/11 15:23:22;;;;;;;2.53;2.53;;;27.70;81.20;;;;;;4935604;29;20466;-68
2021/06/11 15:25:49;;;;;;;4.47;2.60;;;27.60;82.50;;;;;;4935243;29;20962;-69
2021/06/11 15:28:15;;;;;;;2.10;2.10;;;27.50;83.30;;;;;;4935883;29;20457;-68
2021/06/11 15:30:42;;;;;;;2.80;2.70;;;27.40;83.50;;;;;;4934938;28;20524;-69
2021/06/11 15:33:09;;;;;;;2.97;2.87;;;27.30;84.00;;;;;;4935555;29;20485;-71
2021/06/11 15:35:36;;;;;;;2.40;2.40;;;27.30;84.80;;;;;;4935583;29;20467;-71
2021/06/11 15:38:03;;;;;;;3.13;2.93;;;27.40;85.80;;;;;;4935852;29;20492;-70
2021/06/11 15:40:29;;;;;;;3.10;2.90;;;27.40;84.50;;;;;;4935124;29;20489;-71
2021/06/11 15:42:58;;;;;;;2.53;2.43;;;27.40;84.70;;;;;;4935875;29;20496;-68
2021/06/11 15:45:24;;;;;;;2.93;2.90;;;27.40;84.70;;;;;;4934884;28;20516;-69
2021/06/11 15:47:51;;;;;;;3.23;3.17;;;27.30;85.70;;;;;;4935794;29;20477;-68
2021/06/11 15:50:19;;;;;;;3.00;3.00;;;27.40;86.40;;;;;;4935323;29;20480;-68
2021/06/11 15:52:45;;;;;;;3.23;2.90;;;27.50;86.10;;;;;;4934990;29;20544;-69
2021/06/11 15:55:11;;;;;;;3.30;3.20;;;27.50;86.30;;;;;;4935323;28;20474;-69
2021/06/11 15:57:38;;;;;;;2.57;2.47;;;27.40;86.40;;;;;;4934769;29;20489;-68
2021/06/11 16:00:06;;;;;;;2.80;2.80;;;27.40;86.20;;;;;;4935031;29;20509;-68
2021/06/11 16:02:33;;;;;;;2.73;2.70;;;27.40;86.80;;;;;;4934983;29;20478;-69
2021/06/11 16:04:59;;;;;;;2.60;2.60;;;27.50;86.70;;;;;;4934945;29;20472;-69
2021/06/11 16:07:26;;;;;;;2.67;2.67;;;27.70;87.10;;;;;;4934648;28;20477;-69
2021/06/11 16:09:53;;;;;;;2.90;2.80;;;27.80;87.10;;;;;;4935036;29;20468;-68
2021/06/11 16:12:19;;;;;;;2.53;2.53;;;27.70;87.60;;;;;;4934663;29;20489;-69
2021/06/11 16:14:45;;;;;;;2.67;2.67;;;27.70;88.20;;;;;;4935397;29;20472;-69
2021/06/11 16:17:12;;;;;;;2.53;2.43;;;27.50;89.30;;;;;;4935252;29;20465;-69
2021/06/11 16:19:38;;;;;;;3.00;2.90;;;27.30;89.70;;;;;;4935125;28;20502;-69
2021/06/11 16:22:04;;;;;;;2.90;2.80;;;27.30;90.30;;;;;;4937301;29;20485;-70
2021/06/11 16:24:32;;;;;;;2.80;2.70;;;27.40;90.10;;;;;;4939089;29;20583;-69
2021/06/11 16:26:58;;;;;;;2.90;2.80;;;27.40;90.30;;;;;;4938601;29;20949;-68
2021/06/11 16:29:24;;;;;;;2.70;2.60;;;27.50;90.10;;;;;;4938381;29;20468;-68
2021/06/11 16:31:51;;;;;;;3.00;2.90;;;27.50;90.60;;;;;;4938467;29;20504;-69
2021/06/11 16:34:17;;;;;;;2.60;2.60;;;27.50;90.70;;;;;;4938621;29;20598;-69
2021/06/11 16:36:43;;;;;;;5.13;2.80;;;27.50;90.50;;;;;;4938718;29;20472;-68
2021/06/11 16:39:10;;;;;;;3.00;2.90;;;27.40;90.60;;;;;;4938717;29;20982;-69
2021/06/11 16:41:37;;;;;;;3.33;3.23;;;27.20;91.40;;;;;;4938346;28;20548;-68
2021/06/11 16:44:04;;;;;;;3.97;3.70;;;27.10;91.80;;;;;;4938271;29;20465;-68
2021/06/11 16:46:30;;;;;;;2.67;2.47;;;27.10;92.50;;;;;;4938106;29;20470;-68